sensor_id;sensor_type;location;lat;lon;timestamp;P1;durP1;ratioP1;P2;durP2;ratioP2
58240;SDS011;45058;55.772;38.224;2022-12-18T00:01:04;20.40;;;10.93;;
58240;SDS011;45058;55.772;38.224;2022-12-18T00:03:35;17.77;;;10.73;;
58240;SDS011;45058;55.772;38.224;2022-12-18T00:06:01;18.57;;;10.93;;
58240;SDS011;45058;55.772;38.224;2022-12-18T00:08:28;20.90;;;11.20;;
58240;SDS011;45058;55.772;38.224;2022-12-18T00:10:54;18.20;;;10.70;;
58240;SDS011;45058;55.772;38.224;2022-12-18T00:13:20;19.60;;;10.47;;
58240;SDS011;45058;55.772;38.224;2022-12-18T00:15:46;16.33;;;9.57;;
58240;SDS011;45058;55.772;38.224;2022-12-18T00:18:12;17.50;;;10.50;;
58240;SDS011;45058;55.772;38.224;2022-12-18T00:20:39;18.43;;;11.17;;
58240;SDS011;45058;55.772;38.224;2022-12-18T00:23:06;19.13;;;10.90;;
58240;SDS011;45058;55.772;38.224;2022-12-18T00:25:33;19.57;;;10.53;;
58240;SDS011;45058;55.772;38.224;2022-12-18T00:28:00;18.23;;;10.53;;
58240;SDS011;45058;55.772;38.224;2022-12-18T00:30:27;18.33;;;10.87;;
58240;SDS011;45058;55.772;38.224;2022-12-18T00:32:54;18.90;;;10.53;;
58240;SDS011;45058;55.772;38.224;2022-12-18T00:35:20;22.00;;;10.73;;
58240;SDS011;45058;55.772;38.224;2022-12-18T00:37:47;18.43;;;10.60;;
58240;SDS011;45058;55.772;38.224;2022-12-18T00:40:13;16.83;;;10.40;;
58240;SDS011;45058;55.772;38.224;2022-12-18T00:42:39;16.80;;;10.40;;
58240;SDS011;45058;55.772;38.224;2022-12-18T00:45:27;14.57;;;8.27;;
58240;SDS011;45058;55.772;38.224;2022-12-18T00:47:55;15.53;;;9.17;;
58240;SDS011;45058;55.772;38.224;2022-12-18T00:50:22;15.87;;;9.27;;
58240;SDS011;45058;55.772;38.224;2022-12-18T00:52:50;17.67;;;8.70;;
58240;SDS011;45058;55.772;38.224;2022-12-18T00:55:16;18.07;;;9.10;;
58240;SDS011;45058;55.772;38.224;2022-12-18T00:57:43;15.43;;;9.43;;
58240;SDS011;45058;55.772;38.224;2022-12-18T01:00:13;16.67;;;10.20;;
58240;SDS011;45058;55.772;38.224;2022-12-18T01:02:40;15.20;;;9.03;;
58240;SDS011;45058;55.772;38.224;2022-12-18T01:05:07;14.03;;;9.20;;
58240;SDS011;45058;55.772;38.224;2022-12-18T01:07:35;16.60;;;9.43;;
58240;SDS011;45058;55.772;38.224;2022-12-18T01:10:02;15.63;;;8.77;;
58240;SDS011;45058;55.772;38.224;2022-12-18T01:12:29;16.33;;;8.90;;
58240;SDS011;45058;55.772;38.224;2022-12-18T01:14:55;15.90;;;9.57;;
58240;SDS011;45058;55.772;38.224;2022-12-18T01:17:22;16.50;;;9.47;;
58240;SDS011;45058;55.772;38.224;2022-12-18T01:19:48;17.20;;;9.50;;
58240;SDS011;45058;55.772;38.224;2022-12-18T01:22:14;15.57;;;9.37;;
58240;SDS011;45058;55.772;38.224;2022-12-18T01:24:40;16.27;;;9.13;;
58240;SDS011;45058;55.772;38.224;2022-12-18T01:27:06;15.40;;;8.80;;
58240;SDS011;45058;55.772;38.224;2022-12-18T01:29:32;13.77;;;9.13;;
58240;SDS011;45058;55.772;38.224;2022-12-18T01:31:58;15.07;;;9.53;;
58240;SDS011;45058;55.772;38.224;2022-12-18T01:34:24;16.30;;;9.53;;
58240;SDS011;45058;55.772;38.224;2022-12-18T01:36:50;14.80;;;9.00;;
58240;SDS011;45058;55.772;38.224;2022-12-18T01:39:18;17.50;;;9.33;;
58240;SDS011;45058;55.772;38.224;2022-12-18T01:41:44;16.10;;;8.10;;
58240;SDS011;45058;55.772;38.224;2022-12-18T01:47:46;15.40;;;8.87;;
58240;SDS011;45058;55.772;38.224;2022-12-18T01:50:15;14.67;;;8.73;;
58240;SDS011;45058;55.772;38.224;2022-12-18T01:52:43;14.43;;;8.13;;
58240;SDS011;45058;55.772;38.224;2022-12-18T01:55:12;13.97;;;8.77;;
58240;SDS011;45058;55.772;38.224;2022-12-18T01:57:38;14.17;;;8.70;;
58240;SDS011;45058;55.772;38.224;2022-12-18T02:00:07;13.33;;;8.20;;
58240;SDS011;45058;55.772;38.224;2022-12-18T02:02:41;15.63;;;7.90;;
58240;SDS011;45058;55.772;38.224;2022-12-18T02:05:08;15.27;;;8.77;;
58240;SDS011;45058;55.772;38.224;2022-12-18T02:10:32;15.87;;;7.97;;
58240;SDS011;45058;55.772;38.224;2022-12-18T02:13:27;14.40;;;7.63;;
58240;SDS011;45058;55.772;38.224;2022-12-18T02:16:26;13.17;;;8.23;;
58240;SDS011;45058;55.772;38.224;2022-12-18T02:18:56;13.15;;;8.60;;
58240;SDS011;45058;55.772;38.224;2022-12-18T02:26:59;14.00;;;7.80;;
58240;SDS011;45058;55.772;38.224;2022-12-18T02:30:12;14.10;;;8.07;;
58240;SDS011;45058;55.772;38.224;2022-12-18T02:32:21;13.40;;;7.97;;
58240;SDS011;45058;55.772;38.224;2022-12-18T02:34:53;12.57;;;7.40;;
58240;SDS011;45058;55.772;38.224;2022-12-18T02:37:23;11.60;;;7.50;;
58240;SDS011;45058;55.772;38.224;2022-12-18T02:39:49;13.17;;;7.67;;
58240;SDS011;45058;55.772;38.224;2022-12-18T02:42:17;12.70;;;7.43;;
58240;SDS011;45058;55.772;38.224;2022-12-18T02:44:44;11.10;;;7.03;;
58240;SDS011;45058;55.772;38.224;2022-12-18T02:47:12;13.77;;;7.87;;
58240;SDS011;45058;55.772;38.224;2022-12-18T02:57:23;11.83;;;7.53;;
58240;SDS011;45058;55.772;38.224;2022-12-18T03:02:33;11.73;;;6.80;;
58240;SDS011;45058;55.772;38.224;2022-12-18T03:05:16;12.03;;;7.40;;
58240;SDS011;45058;55.772;38.224;2022-12-18T03:10:14;13.80;;;7.70;;
58240;SDS011;45058;55.772;38.224;2022-12-18T03:12:52;13.33;;;7.80;;
58240;SDS011;45058;55.772;38.224;2022-12-18T03:15:22;12.50;;;6.90;;
58240;SDS011;45058;55.772;38.224;2022-12-18T03:18:10;12.57;;;7.93;;
58240;SDS011;45058;55.772;38.224;2022-12-18T03:20:43;14.20;;;7.57;;
58240;SDS011;45058;55.772;38.224;2022-12-18T03:23:18;10.67;;;6.63;;
58240;SDS011;45058;55.772;38.224;2022-12-18T03:25:48;9.90;;;6.80;;
58240;SDS011;45058;55.772;38.224;2022-12-18T03:28:20;13.27;;;7.53;;
58240;SDS011;45058;55.772;38.224;2022-12-18T03:30:55;12.27;;;7.67;;
58240;SDS011;45058;55.772;38.224;2022-12-18T03:33:29;15.73;;;8.37;;
58240;SDS011;45058;55.772;38.224;2022-12-18T03:36:00;16.70;;;7.60;;
58240;SDS011;45058;55.772;38.224;2022-12-18T03:38:27;14.83;;;8.17;;
58240;SDS011;45058;55.772;38.224;2022-12-18T03:41:03;12.93;;;7.40;;
58240;SDS011;45058;55.772;38.224;2022-12-18T03:46:30;10.53;;;7.60;;
58240;SDS011;45058;55.772;38.224;2022-12-18T03:49:01;13.77;;;7.73;;
58240;SDS011;45058;55.772;38.224;2022-12-18T03:51:37;13.53;;;7.60;;
58240;SDS011;45058;55.772;38.224;2022-12-18T03:56:40;14.50;;;7.33;;
58240;SDS011;45058;55.772;38.224;2022-12-18T03:59:10;11.80;;;7.53;;
58240;SDS011;45058;55.772;38.224;2022-12-18T04:01:39;14.20;;;8.00;;
58240;SDS011;45058;55.772;38.224;2022-12-18T04:04:13;8.53;;;5.70;;
58240;SDS011;45058;55.772;38.224;2022-12-18T04:06:41;13.23;;;7.13;;
58240;SDS011;45058;55.772;38.224;2022-12-18T04:09:09;13.93;;;8.30;;
58240;SDS011;45058;55.772;38.224;2022-12-18T04:11:40;12.57;;;7.27;;
58240;SDS011;45058;55.772;38.224;2022-12-18T04:14:07;12.50;;;7.50;;
58240;SDS011;45058;55.772;38.224;2022-12-18T04:16:33;12.27;;;7.40;;
58240;SDS011;45058;55.772;38.224;2022-12-18T04:19:02;11.57;;;6.80;;
58240;SDS011;45058;55.772;38.224;2022-12-18T04:21:34;11.93;;;6.60;;
58240;SDS011;45058;55.772;38.224;2022-12-18T04:24:00;12.27;;;7.90;;
58240;SDS011;45058;55.772;38.224;2022-12-18T04:26:28;15.83;;;7.93;;
58240;SDS011;45058;55.772;38.224;2022-12-18T04:29:10;13.63;;;7.67;;
58240;SDS011;45058;55.772;38.224;2022-12-18T04:31:36;10.83;;;6.97;;
58240;SDS011;45058;55.772;38.224;2022-12-18T04:34:02;14.80;;;8.30;;
58240;SDS011;45058;55.772;38.224;2022-12-18T04:36:32;10.80;;;6.43;;
58240;SDS011;45058;55.772;38.224;2022-12-18T04:38:58;13.10;;;7.37;;
58240;SDS011;45058;55.772;38.224;2022-12-18T04:41:25;11.70;;;7.30;;
58240;SDS011;45058;55.772;38.224;2022-12-18T04:43:52;11.33;;;6.97;;
58240;SDS011;45058;55.772;38.224;2022-12-18T04:46:18;11.07;;;7.00;;
58240;SDS011;45058;55.772;38.224;2022-12-18T04:48:45;11.30;;;7.10;;
58240;SDS011;45058;55.772;38.224;2022-12-18T04:51:12;9.90;;;6.27;;
58240;SDS011;45058;55.772;38.224;2022-12-18T04:53:38;11.83;;;6.63;;
58240;SDS011;45058;55.772;38.224;2022-12-18T04:56:08;10.20;;;6.33;;
58240;SDS011;45058;55.772;38.224;2022-12-18T04:58:36;11.33;;;7.00;;
58240;SDS011;45058;55.772;38.224;2022-12-18T05:01:03;12.87;;;7.10;;
58240;SDS011;45058;55.772;38.224;2022-12-18T05:03:29;12.70;;;7.23;;
58240;SDS011;45058;55.772;38.224;2022-12-18T05:05:55;10.70;;;6.63;;
58240;SDS011;45058;55.772;38.224;2022-12-18T05:08:21;8.90;;;6.33;;
58240;SDS011;45058;55.772;38.224;2022-12-18T05:10:47;12.53;;;7.63;;
58240;SDS011;45058;55.772;38.224;2022-12-18T05:13:13;13.87;;;7.10;;
58240;SDS011;45058;55.772;38.224;2022-12-18T05:15:39;11.80;;;6.87;;
58240;SDS011;45058;55.772;38.224;2022-12-18T05:18:07;10.10;;;6.57;;
58240;SDS011;45058;55.772;38.224;2022-12-18T05:20:34;11.37;;;6.67;;
58240;SDS011;45058;55.772;38.224;2022-12-18T05:23:00;13.67;;;7.07;;
58240;SDS011;45058;55.772;38.224;2022-12-18T05:25:26;15.40;;;6.67;;
58240;SDS011;45058;55.772;38.224;2022-12-18T05:27:52;12.23;;;7.53;;
58240;SDS011;45058;55.772;38.224;2022-12-18T05:30:18;20.13;;;7.23;;
58240;SDS011;45058;55.772;38.224;2022-12-18T05:32:44;10.60;;;6.70;;
58240;SDS011;45058;55.772;38.224;2022-12-18T05:35:10;12.33;;;6.93;;
58240;SDS011;45058;55.772;38.224;2022-12-18T05:37:36;10.10;;;6.37;;
58240;SDS011;45058;55.772;38.224;2022-12-18T05:40:03;10.07;;;6.27;;
58240;SDS011;45058;55.772;38.224;2022-12-18T05:42:30;9.80;;;6.20;;
58240;SDS011;45058;55.772;38.224;2022-12-18T05:44:56;10.60;;;7.10;;
58240;SDS011;45058;55.772;38.224;2022-12-18T05:47:22;11.37;;;6.77;;
58240;SDS011;45058;55.772;38.224;2022-12-18T05:49:48;11.70;;;6.87;;
58240;SDS011;45058;55.772;38.224;2022-12-18T05:52:14;11.77;;;7.30;;
58240;SDS011;45058;55.772;38.224;2022-12-18T05:54:40;9.43;;;6.20;;
58240;SDS011;45058;55.772;38.224;2022-12-18T05:57:06;11.83;;;7.30;;
58240;SDS011;45058;55.772;38.224;2022-12-18T05:59:32;10.73;;;6.63;;
58240;SDS011;45058;55.772;38.224;2022-12-18T06:01:58;10.67;;;6.63;;
58240;SDS011;45058;55.772;38.224;2022-12-18T06:04:26;10.33;;;6.80;;
58240;SDS011;45058;55.772;38.224;2022-12-18T06:06:54;9.93;;;6.50;;
58240;SDS011;45058;55.772;38.224;2022-12-18T06:09:20;9.83;;;6.53;;
58240;SDS011;45058;55.772;38.224;2022-12-18T06:11:46;10.33;;;6.50;;
58240;SDS011;45058;55.772;38.224;2022-12-18T06:14:12;10.63;;;6.23;;
58240;SDS011;45058;55.772;38.224;2022-12-18T06:16:38;11.70;;;7.40;;
58240;SDS011;45058;55.772;38.224;2022-12-18T06:19:04;11.83;;;7.13;;
58240;SDS011;45058;55.772;38.224;2022-12-18T06:21:31;11.00;;;6.90;;
58240;SDS011;45058;55.772;38.224;2022-12-18T06:23:58;12.73;;;7.33;;
58240;SDS011;45058;55.772;38.224;2022-12-18T06:26:25;10.53;;;6.80;;
58240;SDS011;45058;55.772;38.224;2022-12-18T06:28:51;11.90;;;6.60;;
58240;SDS011;45058;55.772;38.224;2022-12-18T06:31:17;9.53;;;6.20;;
58240;SDS011;45058;55.772;38.224;2022-12-18T06:33:43;10.10;;;5.97;;
58240;SDS011;45058;55.772;38.224;2022-12-18T06:36:11;10.23;;;6.40;;
58240;SDS011;45058;55.772;38.224;2022-12-18T06:38:38;11.90;;;6.97;;
58240;SDS011;45058;55.772;38.224;2022-12-18T06:41:08;10.40;;;6.87;;
58240;SDS011;45058;55.772;38.224;2022-12-18T06:43:35;10.93;;;6.63;;
58240;SDS011;45058;55.772;38.224;2022-12-18T06:46:02;10.57;;;6.63;;
58240;SDS011;45058;55.772;38.224;2022-12-18T06:48:29;10.97;;;7.10;;
58240;SDS011;45058;55.772;38.224;2022-12-18T06:50:55;10.77;;;6.90;;
58240;SDS011;45058;55.772;38.224;2022-12-18T06:53:21;10.90;;;5.97;;
58240;SDS011;45058;55.772;38.224;2022-12-18T06:55:47;14.30;;;6.30;;
58240;SDS011;45058;55.772;38.224;2022-12-18T06:58:13;11.53;;;6.47;;
58240;SDS011;45058;55.772;38.224;2022-12-18T07:00:40;10.27;;;6.27;;
58240;SDS011;45058;55.772;38.224;2022-12-18T07:03:06;11.57;;;7.03;;
58240;SDS011;45058;55.772;38.224;2022-12-18T07:05:32;10.53;;;6.30;;
58240;SDS011;45058;55.772;38.224;2022-12-18T07:07:58;9.67;;;6.10;;
58240;SDS011;45058;55.772;38.224;2022-12-18T07:10:24;10.23;;;7.00;;
58240;SDS011;45058;55.772;38.224;2022-12-18T07:12:50;10.77;;;7.20;;
58240;SDS011;45058;55.772;38.224;2022-12-18T07:15:16;14.30;;;7.07;;
58240;SDS011;45058;55.772;38.224;2022-12-18T07:17:43;14.83;;;6.67;;
58240;SDS011;45058;55.772;38.224;2022-12-18T07:20:09;10.40;;;6.73;;
58240;SDS011;45058;55.772;38.224;2022-12-18T07:22:35;12.70;;;6.17;;
58240;SDS011;45058;55.772;38.224;2022-12-18T07:25:01;11.77;;;6.70;;
58240;SDS011;45058;55.772;38.224;2022-12-18T07:27:28;11.53;;;7.17;;
58240;SDS011;45058;55.772;38.224;2022-12-18T07:29:54;11.97;;;6.80;;
58240;SDS011;45058;55.772;38.224;2022-12-18T07:32:21;9.60;;;6.73;;
58240;SDS011;45058;55.772;38.224;2022-12-18T07:34:47;9.03;;;5.40;;
58240;SDS011;45058;55.772;38.224;2022-12-18T07:37:13;11.10;;;6.33;;
58240;SDS011;45058;55.772;38.224;2022-12-18T07:39:39;12.50;;;8.07;;
58240;SDS011;45058;55.772;38.224;2022-12-18T07:42:05;13.43;;;6.67;;
58240;SDS011;45058;55.772;38.224;2022-12-18T07:44:49;10.53;;;6.60;;
58240;SDS011;45058;55.772;38.224;2022-12-18T07:47:15;11.20;;;6.60;;
58240;SDS011;45058;55.772;38.224;2022-12-18T07:49:42;11.90;;;7.37;;
58240;SDS011;45058;55.772;38.224;2022-12-18T07:52:08;13.67;;;7.13;;
58240;SDS011;45058;55.772;38.224;2022-12-18T07:54:35;11.90;;;6.83;;
58240;SDS011;45058;55.772;38.224;2022-12-18T07:57:01;11.17;;;7.27;;
58240;SDS011;45058;55.772;38.224;2022-12-18T07:59:27;11.90;;;7.13;;
58240;SDS011;45058;55.772;38.224;2022-12-18T08:01:53;10.73;;;6.90;;
58240;SDS011;45058;55.772;38.224;2022-12-18T08:04:19;12.37;;;6.60;;
58240;SDS011;45058;55.772;38.224;2022-12-18T08:06:45;10.43;;;6.03;;
58240;SDS011;45058;55.772;38.224;2022-12-18T08:09:11;11.43;;;6.80;;
58240;SDS011;45058;55.772;38.224;2022-12-18T08:11:37;11.93;;;7.27;;
58240;SDS011;45058;55.772;38.224;2022-12-18T08:14:03;13.03;;;7.47;;
58240;SDS011;45058;55.772;38.224;2022-12-18T08:16:29;11.13;;;7.40;;
58240;SDS011;45058;55.772;38.224;2022-12-18T08:18:56;10.80;;;6.73;;
58240;SDS011;45058;55.772;38.224;2022-12-18T08:21:26;11.10;;;6.70;;
58240;SDS011;45058;55.772;38.224;2022-12-18T08:23:54;11.57;;;7.57;;
58240;SDS011;45058;55.772;38.224;2022-12-18T08:26:22;11.17;;;6.43;;
58240;SDS011;45058;55.772;38.224;2022-12-18T08:28:49;11.57;;;7.07;;
58240;SDS011;45058;55.772;38.224;2022-12-18T08:31:16;10.13;;;6.90;;
58240;SDS011;45058;55.772;38.224;2022-12-18T08:33:42;10.87;;;6.67;;
58240;SDS011;45058;55.772;38.224;2022-12-18T08:36:08;15.77;;;6.60;;
58240;SDS011;45058;55.772;38.224;2022-12-18T08:38:35;10.60;;;6.87;;
58240;SDS011;45058;55.772;38.224;2022-12-18T08:41:06;12.93;;;7.23;;
58240;SDS011;45058;55.772;38.224;2022-12-18T08:43:33;11.17;;;7.27;;
58240;SDS011;45058;55.772;38.224;2022-12-18T08:46:18;11.03;;;7.03;;
58240;SDS011;45058;55.772;38.224;2022-12-18T08:48:45;13.17;;;7.77;;
58240;SDS011;45058;55.772;38.224;2022-12-18T08:51:11;11.80;;;7.40;;
58240;SDS011;45058;55.772;38.224;2022-12-18T08:53:38;12.50;;;7.13;;
58240;SDS011;45058;55.772;38.224;2022-12-18T08:56:04;11.90;;;6.80;;
58240;SDS011;45058;55.772;38.224;2022-12-18T08:58:30;12.00;;;7.57;;
58240;SDS011;45058;55.772;38.224;2022-12-18T09:01:00;11.13;;;7.40;;
58240;SDS011;45058;55.772;38.224;2022-12-18T09:03:27;14.57;;;7.73;;
58240;SDS011;45058;55.772;38.224;2022-12-18T09:05:53;11.63;;;7.43;;
58240;SDS011;45058;55.772;38.224;2022-12-18T09:08:19;11.77;;;6.77;;
58240;SDS011;45058;55.772;38.224;2022-12-18T09:10:46;12.67;;;7.73;;
58240;SDS011;45058;55.772;38.224;2022-12-18T09:13:14;15.70;;;8.20;;
58240;SDS011;45058;55.772;38.224;2022-12-18T09:15:41;15.97;;;8.33;;
58240;SDS011;45058;55.772;38.224;2022-12-18T09:18:08;11.83;;;7.27;;
58240;SDS011;45058;55.772;38.224;2022-12-18T09:20:35;12.50;;;6.93;;
58240;SDS011;45058;55.772;38.224;2022-12-18T09:23:03;10.73;;;7.23;;
58240;SDS011;45058;55.772;38.224;2022-12-18T09:25:29;12.27;;;6.87;;
58240;SDS011;45058;55.772;38.224;2022-12-18T09:27:59;13.23;;;7.43;;
58240;SDS011;45058;55.772;38.224;2022-12-18T09:30:26;9.23;;;6.63;;
58240;SDS011;45058;55.772;38.224;2022-12-18T09:32:52;11.37;;;6.90;;
58240;SDS011;45058;55.772;38.224;2022-12-18T09:35:19;10.80;;;6.83;;
58240;SDS011;45058;55.772;38.224;2022-12-18T09:37:45;14.57;;;7.17;;
58240;SDS011;45058;55.772;38.224;2022-12-18T09:40:18;12.00;;;6.47;;
58240;SDS011;45058;55.772;38.224;2022-12-18T09:42:47;10.37;;;7.03;;
58240;SDS011;45058;55.772;38.224;2022-12-18T09:45:17;12.93;;;7.10;;
58240;SDS011;45058;55.772;38.224;2022-12-18T09:47:43;13.03;;;7.60;;
58240;SDS011;45058;55.772;38.224;2022-12-18T09:52:50;11.33;;;7.03;;
58240;SDS011;45058;55.772;38.224;2022-12-18T09:57:55;11.88;;;7.43;;
58240;SDS011;45058;55.772;38.224;2022-12-18T10:00:24;11.07;;;7.50;;
58240;SDS011;45058;55.772;38.224;2022-12-18T10:02:56;10.90;;;7.37;;
58240;SDS011;45058;55.772;38.224;2022-12-18T10:05:35;11.03;;;7.20;;
58240;SDS011;45058;55.772;38.224;2022-12-18T10:08:08;12.33;;;7.37;;
58240;SDS011;45058;55.772;38.224;2022-12-18T10:20:54;11.43;;;7.07;;
58240;SDS011;45058;55.772;38.224;2022-12-18T10:23:51;11.37;;;7.03;;
58240;SDS011;45058;55.772;38.224;2022-12-18T10:26:24;14.00;;;8.00;;
58240;SDS011;45058;55.772;38.224;2022-12-18T10:28:50;10.60;;;6.53;;
58240;SDS011;45058;55.772;38.224;2022-12-18T10:31:21;17.33;;;7.20;;
58240;SDS011;45058;55.772;38.224;2022-12-18T10:33:48;10.83;;;6.80;;
58240;SDS011;45058;55.772;38.224;2022-12-18T10:36:15;12.53;;;7.57;;
58240;SDS011;45058;55.772;38.224;2022-12-18T10:38:41;14.77;;;7.53;;
58240;SDS011;45058;55.772;38.224;2022-12-18T10:47:02;13.33;;;7.40;;
58240;SDS011;45058;55.772;38.224;2022-12-18T10:49:30;16.57;;;8.10;;
58240;SDS011;45058;55.772;38.224;2022-12-18T10:52:11;11.23;;;6.90;;
58240;SDS011;45058;55.772;38.224;2022-12-18T10:54:46;14.43;;;7.97;;
58240;SDS011;45058;55.772;38.224;2022-12-18T10:57:28;12.20;;;7.47;;
58240;SDS011;45058;55.772;38.224;2022-12-18T10:59:57;12.07;;;7.03;;
58240;SDS011;45058;55.772;38.224;2022-12-18T11:02:33;12.03;;;7.07;;
58240;SDS011;45058;55.772;38.224;2022-12-18T11:05:02;13.20;;;7.93;;
58240;SDS011;45058;55.772;38.224;2022-12-18T11:07:48;11.80;;;6.80;;
58240;SDS011;45058;55.772;38.224;2022-12-18T11:10:20;11.60;;;6.30;;
58240;SDS011;45058;55.772;38.224;2022-12-18T11:12:47;12.93;;;7.37;;
58240;SDS011;45058;55.772;38.224;2022-12-18T11:15:15;11.10;;;6.67;;
58240;SDS011;45058;55.772;38.224;2022-12-18T11:17:46;11.77;;;6.73;;
58240;SDS011;45058;55.772;38.224;2022-12-18T11:20:21;13.93;;;6.93;;
58240;SDS011;45058;55.772;38.224;2022-12-18T11:22:57;11.53;;;6.53;;
58240;SDS011;45058;55.772;38.224;2022-12-18T11:25:25;9.27;;;5.77;;
58240;SDS011;45058;55.772;38.224;2022-12-18T11:27:53;11.70;;;6.80;;
58240;SDS011;45058;55.772;38.224;2022-12-18T11:30:22;10.87;;;6.70;;
58240;SDS011;45058;55.772;38.224;2022-12-18T11:32:52;9.33;;;5.57;;
58240;SDS011;45058;55.772;38.224;2022-12-18T11:35:23;10.30;;;6.33;;
58240;SDS011;45058;55.772;38.224;2022-12-18T11:37:57;10.60;;;6.22;;
58240;SDS011;45058;55.772;38.224;2022-12-18T11:40:37;9.73;;;5.77;;
58240;SDS011;45058;55.772;38.224;2022-12-18T11:43:09;9.43;;;5.80;;
58240;SDS011;45058;55.772;38.224;2022-12-18T11:46:00;16.02;;;6.30;;
58240;SDS011;45058;55.772;38.224;2022-12-18T11:48:29;12.47;;;6.63;;
58240;SDS011;45058;55.772;38.224;2022-12-18T11:50:58;69.23;;;12.83;;
58240;SDS011;45058;55.772;38.224;2022-12-18T11:53:26;9.60;;;6.00;;
58240;SDS011;45058;55.772;38.224;2022-12-18T11:58:46;9.13;;;4.73;;
58240;SDS011;45058;55.772;38.224;2022-12-18T12:04:00;9.37;;;4.83;;
58240;SDS011;45058;55.772;38.224;2022-12-18T12:35:36;12.57;;;6.37;;
58240;SDS011;45058;55.772;38.224;2022-12-18T12:38:13;9.90;;;6.30;;
58240;SDS011;45058;55.772;38.224;2022-12-18T12:40:52;12.07;;;6.20;;
58240;SDS011;45058;55.772;38.224;2022-12-18T12:45:52;12.10;;;6.30;;
58240;SDS011;45058;55.772;38.224;2022-12-18T12:48:31;10.13;;;5.57;;
58240;SDS011;45058;55.772;38.224;2022-12-18T12:51:09;9.53;;;5.60;;
58240;SDS011;45058;55.772;38.224;2022-12-18T12:53:38;9.40;;;5.73;;
58240;SDS011;45058;55.772;38.224;2022-12-18T12:56:05;9.83;;;5.07;;
58240;SDS011;45058;55.772;38.224;2022-12-18T12:58:34;9.53;;;5.73;;
58240;SDS011;45058;55.772;38.224;2022-12-18T13:04:26;8.40;;;5.00;;
58240;SDS011;45058;55.772;38.224;2022-12-18T13:09:33;9.73;;;5.20;;
58240;SDS011;45058;55.772;38.224;2022-12-18T13:12:04;9.50;;;5.00;;
58240;SDS011;45058;55.772;38.224;2022-12-18T13:14:53;10.27;;;5.70;;
58240;SDS011;45058;55.772;38.224;2022-12-18T13:19:49;11.53;;;4.80;;
58240;SDS011;45058;55.772;38.224;2022-12-18T13:22:46;20.17;;;5.00;;
58240;SDS011;45058;55.772;38.224;2022-12-18T13:28:06;19.73;;;5.50;;
58240;SDS011;45058;55.772;38.224;2022-12-18T13:43:37;8.43;;;4.73;;
58240;SDS011;45058;55.772;38.224;2022-12-18T13:46:21;8.47;;;4.70;;
58240;SDS011;45058;55.772;38.224;2022-12-18T13:49:03;8.07;;;4.22;;
58240;SDS011;45058;55.772;38.224;2022-12-18T13:51:42;9.47;;;4.70;;
58240;SDS011;45058;55.772;38.224;2022-12-18T13:56:54;6.33;;;3.57;;
58240;SDS011;45058;55.772;38.224;2022-12-18T13:59:22;8.77;;;4.57;;
58240;SDS011;45058;55.772;38.224;2022-12-18T14:01:56;7.23;;;4.23;;
58240;SDS011;45058;55.772;38.224;2022-12-18T14:04:25;7.87;;;4.27;;
58240;SDS011;45058;55.772;38.224;2022-12-18T14:06:55;8.27;;;3.33;;
58240;SDS011;45058;55.772;38.224;2022-12-18T14:09:24;5.70;;;3.63;;
58240;SDS011;45058;55.772;38.224;2022-12-18T14:11:55;7.00;;;3.97;;
58240;SDS011;45058;55.772;38.224;2022-12-18T14:14:43;6.93;;;3.70;;
58240;SDS011;45058;55.772;38.224;2022-12-18T14:17:12;7.60;;;3.53;;
58240;SDS011;45058;55.772;38.224;2022-12-18T14:19:46;4.60;;;3.30;;
58240;SDS011;45058;55.772;38.224;2022-12-18T14:22:18;8.10;;;3.77;;
58240;SDS011;45058;55.772;38.224;2022-12-18T14:24:46;7.13;;;4.17;;
58240;SDS011;45058;55.772;38.224;2022-12-18T14:27:19;5.23;;;3.57;;
58240;SDS011;45058;55.772;38.224;2022-12-18T14:29:47;5.68;;;3.22;;
58240;SDS011;45058;55.772;38.224;2022-12-18T14:32:14;7.13;;;4.20;;
58240;SDS011;45058;55.772;38.224;2022-12-18T14:34:46;7.10;;;4.20;;
58240;SDS011;45058;55.772;38.224;2022-12-18T14:37:17;9.70;;;4.37;;
58240;SDS011;45058;55.772;38.224;2022-12-18T14:42:20;9.17;;;5.50;;
58240;SDS011;45058;55.772;38.224;2022-12-18T14:44:46;12.73;;;6.50;;
58240;SDS011;45058;55.772;38.224;2022-12-18T14:47:15;14.50;;;6.50;;
58240;SDS011;45058;55.772;38.224;2022-12-18T14:49:42;14.27;;;6.23;;
58240;SDS011;45058;55.772;38.224;2022-12-18T14:52:42;19.13;;;7.80;;
58240;SDS011;45058;55.772;38.224;2022-12-18T14:55:01;17.13;;;7.53;;
58240;SDS011;45058;55.772;38.224;2022-12-18T14:57:30;19.97;;;8.07;;
58240;SDS011;45058;55.772;38.224;2022-12-18T15:00:07;20.90;;;8.73;;
58240;SDS011;45058;55.772;38.224;2022-12-18T15:02:48;24.47;;;9.93;;
58240;SDS011;45058;55.772;38.224;2022-12-18T15:05:19;21.27;;;10.20;;
58240;SDS011;45058;55.772;38.224;2022-12-18T15:07:54;18.88;;;8.55;;
58240;SDS011;45058;55.772;38.224;2022-12-18T15:10:22;27.27;;;11.97;;
58240;SDS011;45058;55.772;38.224;2022-12-18T15:20:42;31.07;;;13.13;;
58240;SDS011;45058;55.772;38.224;2022-12-18T15:23:21;33.80;;;13.13;;
58240;SDS011;45058;55.772;38.224;2022-12-18T15:25:56;30.63;;;12.60;;
58240;SDS011;45058;55.772;38.224;2022-12-18T15:28:26;28.53;;;12.43;;
58240;SDS011;45058;55.772;38.224;2022-12-18T15:31:20;29.60;;;12.83;;
58240;SDS011;45058;55.772;38.224;2022-12-18T15:36:18;30.33;;;12.53;;
58240;SDS011;45058;55.772;38.224;2022-12-18T15:38:47;24.53;;;11.63;;
58240;SDS011;45058;55.772;38.224;2022-12-18T15:41:14;24.43;;;11.73;;
58240;SDS011;45058;55.772;38.224;2022-12-18T15:43:42;22.40;;;11.23;;
58240;SDS011;45058;55.772;38.224;2022-12-18T15:46:11;25.30;;;10.70;;
58240;SDS011;45058;55.772;38.224;2022-12-18T15:48:45;20.87;;;9.93;;
58240;SDS011;45058;55.772;38.224;2022-12-18T15:51:20;22.60;;;9.97;;
58240;SDS011;45058;55.772;38.224;2022-12-18T15:56:15;18.33;;;8.20;;
58240;SDS011;45058;55.772;38.224;2022-12-18T15:59:01;12.80;;;6.40;;
58240;SDS011;45058;55.772;38.224;2022-12-18T16:01:29;19.43;;;8.67;;
58240;SDS011;45058;55.772;38.224;2022-12-18T16:03:56;19.67;;;8.97;;
58240;SDS011;45058;55.772;38.224;2022-12-18T16:06:23;16.43;;;8.17;;
58240;SDS011;45058;55.772;38.224;2022-12-18T16:08:49;19.57;;;8.53;;
58240;SDS011;45058;55.772;38.224;2022-12-18T16:11:23;15.27;;;8.40;;
58240;SDS011;45058;55.772;38.224;2022-12-18T16:14:18;15.83;;;8.03;;
58240;SDS011;45058;55.772;38.224;2022-12-18T16:16:48;13.97;;;7.23;;
58240;SDS011;45058;55.772;38.224;2022-12-18T16:19:16;15.20;;;7.60;;
58240;SDS011;45058;55.772;38.224;2022-12-18T16:21:44;15.63;;;7.63;;
58240;SDS011;45058;55.772;38.224;2022-12-18T16:24:15;12.43;;;7.07;;
58240;SDS011;45058;55.772;38.224;2022-12-18T16:26:42;15.97;;;7.07;;
58240;SDS011;45058;55.772;38.224;2022-12-18T16:29:09;11.87;;;6.30;;
58240;SDS011;45058;55.772;38.224;2022-12-18T16:31:36;13.37;;;6.97;;
58240;SDS011;45058;55.772;38.224;2022-12-18T16:34:10;12.50;;;5.07;;
58240;SDS011;45058;55.772;38.224;2022-12-18T16:36:39;12.10;;;5.80;;
58240;SDS011;45058;55.772;38.224;2022-12-18T16:39:05;11.50;;;6.43;;
58240;SDS011;45058;55.772;38.224;2022-12-18T16:41:31;11.03;;;5.67;;
58240;SDS011;45058;55.772;38.224;2022-12-18T16:43:58;12.63;;;5.90;;
58240;SDS011;45058;55.772;38.224;2022-12-18T16:46:25;11.30;;;5.93;;
58240;SDS011;45058;55.772;38.224;2022-12-18T16:48:51;10.07;;;5.37;;